Cle Elum, WA

5:00 PM PDT on September 02, 2014 (GMT -0700)
Cle Elum-Roslyn High School | Change Station
CLOSE
Current Station
Personal Weather Station
Location: Cle Elum, WA
Elevation: 2107 ft
Nearby Weather Stations

Elev 2107 ft 47.20 °N, 120.97 °W | Updated 7 minutes ago

Clear
Clear
61.2 °F
Feels Like 61.2 °F
N
7.0
Wind Variable Wind from West

Today
High -- | Low -- °F
--% Chance of Precip.
Yesterday
High -- | Low -- °F
Precip. -- in
6:24 AM 7:41 PM
First Quarter, 56% visible
Pressure 29.73 in
Visibility 10.0 miles
Clouds Scattered Clouds 10000 ft
Dew Point 48 °F
Humidity 62%
Rainfall 0.00 in
Snow Depth 0 in , 0 in
UV 0.8 out of 12
Pollen 4.30 out of 12
Air Quality Not available.
Flu Activity Not available.
METAR KELN 022353Z AUTO 31022G33KT 10SM SCT100 22/08 A2976 RMK AO2 PK WND 32037/2324 SLP068 T02170083 10250 20217 55006

More Conditions Fewer Conditions

Pressure 29.73 in
Visibility 10.0 miles
Clouds Scattered Clouds 10000 ft
Dew Point 48 °F
Humidity 62%
Rainfall 0.00 in
Snow Depth 0 in , 0 in
UV 0.8 out of 12
Pollen 4.30 out of 12
Air Quality Not available.
Flu Activity Not available.
METAR KELN 022353Z AUTO 31022G33KT 10SM SCT100 22/08 A2976 RMK AO2 PK WND 32037/2324 SLP068 T02170083 10250 20217 55006

More Conditions Fewer Conditions

10-Day Weather Forecast

Almanac

Astronomy

Sep. 02, 2014 Rise Set
Actual Time 6:24 AM PDT 7:41 PM PDT
Civil Twilight 5:52 AM PDT 8:12 PM PDT
Nautical Twilight 5:14 AM PDT 8:50 PM PDT
Astronomical Twilight 4:33 AM PDT 9:31 PM PDT
Moon 2:42 PM PDT (9/2) No Moon Set
Length of Visible Light 14h 20m
Length of Day
13h 17m
Tomorrow will be 3m 17s shorter.
First Quarter, 56% of the Moon is Illuminated
Today
First Quarter
Sep 8
Full
Sep 15
Last Quarter
Sep 24
New
Oct 1
First Quarter

Today's Extremes

State Highs State Lows

Community

WunderPhotos

Upload Photos

1,749,803 photos uploaded!

Nearby

Snow Depth

Station Depth Elevation
Sasse Ridge 0 in 4200 ft
Blewett Pass 0 in 4270 ft
Grouse Camp 1 in 5380 ft
Meadows Pass 0 in 3500 ft
Upper Wheeler 0 in 4400 ft

Earthquake Activity

City Distance Mag. Time & Date
No recent earthquake activity has been reported nearby.
Minimum magnitude displayed is 2.5.

Coastal Water Temperatures

Place Temperature
No Stations Reporting

Nearby Weather Stations